KCRP/CRP METAR and TAF weather

Enter ICAO airport designator
Station Type Date Time Source
KCRP METAR 2019/06/26 21:51 UTC NOAA

KCRP 262151Z 14014KT 10SM FEW023 SCT035 BKN045 BKN200 32/24 A3001 RMK AO2 SLP160 CB DSNT SW W MOV NW T03220239


Station Type Date Time Source
KCRP Decoded METAR 2019/06/26 21:51 UTC NOAA

CORPUS CHRISTI INTERNATIONAL , TX, United States (KCRP) 27-46N 97-31W 16M
Jun 26, 2019 - 05:51 PM EDT / 2019.06.26 2151 UTC
Wind: from the SE (140 degrees) at 16 MPH (14 KT):0
Visibility: 10 mile(s):0
Sky conditions: mostly cloudy
Weather: Cumulonimbus clouds observed
Temperature: 90.0 F (32.2 C)
Heat index: 100.2 F (37.9 C):1
Dew Point: 75.0 F (23.9 C)
Relative Humidity: 61%
Pressure (altimeter): 30.01 in. Hg (1016 hPa)
ob: KCRP 262151Z 14014KT 10SM FEW023 SCT035 BKN045 BKN200 32/24 A3001 RMK AO2 SLP160 CB DSNT SW W MOV NW T03220239
cycle: 22

Station Type Date Time Source
KCRP TAF 2019/06/26 18:36 UTC NOAA

TAF KCRP 261734Z 2618/2718 14015G22KT P6SM FEW035 SCT050
FM270200 12010KT P6SM FEW250
FM271100 13008KT P6SM SCT015

Example: see airport list